createdAt,value
2019-04-16T00:00:32.793Z,55.91
2019-04-16T00:05:40.178Z,55.83
2019-04-16T00:10:57.327Z,55.98
2019-04-16T00:16:01.726Z,56.11
2019-04-16T00:21:23.626Z,56.27
2019-04-16T00:26:27.828Z,56.47
2019-04-16T00:31:34.418Z,56.53
2019-04-16T00:36:38.297Z,56.76
2019-04-16T00:41:42.489Z,56.97
2019-04-16T00:46:46.707Z,57.22
2019-04-16T00:51:50.894Z,57.34
2019-04-16T00:56:55.079Z,57.30
2019-04-16T01:01:59.291Z,57.33
2019-04-16T01:07:03.489Z,57.49
2019-04-16T01:12:07.764Z,57.63
2019-04-16T01:17:11.959Z,57.59
2019-04-16T01:22:16.848Z,57.61
2019-04-16T01:27:23.327Z,57.75
2019-04-16T01:32:46.185Z,57.78
2019-04-16T01:38:09.315Z,57.94
2019-04-16T01:43:13.530Z,57.86
2019-04-16T01:48:17.731Z,57.71
2019-04-16T01:53:21.909Z,57.43
2019-04-16T01:58:26.108Z,57.21
2019-04-16T02:03:30.302Z,57.02
2019-04-16T02:08:34.501Z,56.82
2019-04-16T02:13:38.698Z,56.66
2019-04-16T02:18:42.888Z,56.23
2019-04-16T02:23:48.038Z,56.09
2019-04-16T02:28:53.076Z,55.68
2019-04-16T02:33:57.254Z,55.79
2019-04-16T02:39:01.997Z,55.74
2019-04-16T02:44:06.371Z,55.52
2019-04-16T02:49:10.582Z,55.50
2019-04-16T02:54:34.388Z,55.34
2019-04-16T02:59:46.024Z,55.38
2019-04-16T03:04:51.568Z,54.99
2019-04-16T03:10:01.635Z,55.13
2019-04-16T03:15:02.436Z,55.29
2019-04-16T03:20:08.213Z,55.33
2019-04-16T03:25:14.408Z,54.95
2019-04-16T03:30:18.734Z,54.86
2019-04-16T03:35:26.588Z,54.92
2019-04-16T03:40:28.879Z,54.96
2019-04-16T03:45:33.077Z,55.11
2019-04-16T03:50:37.404Z,55.14
2019-04-16T03:55:41.619Z,55.49
2019-04-16T04:00:45.865Z,55.73
2019-04-16T04:05:56.692Z,55.75
2019-04-16T04:11:00.905Z,55.75
2019-04-16T04:16:05.255Z,55.63
2019-04-16T04:21:09.500Z,55.62
2019-04-16T04:26:13.830Z,55.53
2019-04-16T04:31:18.263Z,55.38
2019-04-16T04:36:23.043Z,55.35
2019-04-16T04:41:30.765Z,55.40
2019-04-16T04:46:35.005Z,55.43
2019-04-16T04:51:42.488Z,55.63
2019-04-16T04:56:45.685Z,55.47
2019-04-16T05:01:50.034Z,55.04
2019-04-16T05:06:57.285Z,55.13
2019-04-16T05:12:03.361Z,54.83
2019-04-16T05:17:07.666Z,54.72
2019-04-16T05:22:12.488Z,54.26
2019-04-16T05:27:16.721Z,53.64
2019-04-16T05:32:20.933Z,53.78
2019-04-16T05:37:25.147Z,53.12
2019-04-16T05:42:29.346Z,52.61
2019-04-16T05:47:33.536Z,52.01
2019-04-16T05:52:37.725Z,51.79
2019-04-16T05:57:43.323Z,51.26
2019-04-16T06:02:50.533Z,50.71
2019-04-16T06:07:55.107Z,50.23
2019-04-16T06:13:18.259Z,49.58
2019-04-16T06:18:39.687Z,48.55
2019-04-16T06:24:03.380Z,47.55
2019-04-16T06:29:29.404Z,47.55
2019-04-16T06:35:07.769Z,47.35
2019-04-16T06:40:32.636Z,47.30
2019-04-16T06:45:47.137Z,47.86
2019-04-16T06:51:12.534Z,46.30
2019-04-16T06:56:21.106Z,45.42
2019-04-16T07:01:42.055Z,44.96
2019-04-16T07:07:08.434Z,44.22
2019-04-16T07:12:20.182Z,43.80
2019-04-16T07:17:24.465Z,43.02
2019-04-16T07:22:28.658Z,42.58
2019-04-16T07:27:53.500Z,42.19
2019-04-16T07:33:03.722Z,41.72
2019-04-16T07:38:27.845Z,40.95
2019-04-16T07:43:51.217Z,40.54
2019-04-16T07:49:06.631Z,40.00
2019-04-16T07:54:28.607Z,39.43
2019-04-16T07:59:33.049Z,39.51
2019-04-16T08:04:37.312Z,38.64
2019-04-16T08:09:41.543Z,37.96
2019-04-16T08:14:45.788Z,37.78
2019-04-16T08:19:49.974Z,37.40
2019-04-16T08:25:02.873Z,37.64
2019-04-16T08:30:06.333Z,37.10
2019-04-16T08:35:10.679Z,36.29
2019-04-16T08:40:14.975Z,36.13
2019-04-16T08:45:20.762Z,35.71
2019-04-16T08:50:26.151Z,35.69
2019-04-16T08:55:31.060Z,34.97
2019-04-16T09:00:35.941Z,34.21
2019-04-16T09:05:41.537Z,32.74
2019-04-16T09:10:46.103Z,31.80
2019-04-16T09:15:50.301Z,30.57
2019-04-16T09:20:54.520Z,30.02
2019-04-16T09:26:22.583Z,29.93
2019-04-16T09:31:48.500Z,30.05
2019-04-16T09:37:07.087Z,30.63
2019-04-16T09:42:11.282Z,29.98
2019-04-16T09:47:15.483Z,29.88
2019-04-16T09:52:22.790Z,29.40
2019-04-16T09:57:30.879Z,29.70
2019-04-16T10:02:33.888Z,28.10
2019-04-16T10:07:40.314Z,27.90
2019-04-16T10:12:44.065Z,27.69
2019-04-16T10:17:48.250Z,27.83
2019-04-16T10:22:52.488Z,27.74
2019-04-16T10:28:16.049Z,27.45
2019-04-16T10:33:20.435Z,26.74
2019-04-16T10:38:36.168Z,25.79
2019-04-16T10:43:58.487Z,23.71
2019-04-16T10:49:21.666Z,24.03
2019-04-16T10:54:33.689Z,22.66
2019-04-16T10:59:42.657Z,21.98
2019-04-16T11:05:03.224Z,21.24
2019-04-16T11:10:07.982Z,19.01
2019-04-16T11:15:14.994Z,18.49
2019-04-16T11:20:19.172Z,18.85
2019-04-16T11:25:23.364Z,17.89
2019-04-16T11:30:48.621Z,17.14
2019-04-16T11:35:53.057Z,16.61
2019-04-16T11:40:57.998Z,16.53
2019-04-16T11:46:02.415Z,16.21
2019-04-16T11:51:06.664Z,17.39
2019-04-16T11:56:11.210Z,15.67
2019-04-16T12:01:45.222Z,15.27
2019-04-16T12:07:06.349Z,15.44
2019-04-16T12:12:15.412Z,14.93
2019-04-16T12:17:24.773Z,15.12
2019-04-16T12:22:33.466Z,15.30
2019-04-16T12:28:06.267Z,14.60
2019-04-16T12:33:18.422Z,13.93
2019-04-16T12:38:35.832Z,14.20
2019-04-16T12:43:44.206Z,13.80
2019-04-16T12:49:07.735Z,14.34
2019-04-16T12:54:25.308Z,14.41
2019-04-16T12:59:38.851Z,13.78
2019-04-16T13:04:49.425Z,13.32
2019-04-16T13:10:05.620Z,14.06
2019-04-16T13:15:28.883Z,13.94
2019-04-16T13:21:07.158Z,13.84
2019-04-16T13:26:23.382Z,14.08
2019-04-16T13:31:27.628Z,13.44
2019-04-16T13:36:31.832Z,13.23
2019-04-16T13:41:36.022Z,13.78
2019-04-16T13:46:40.254Z,13.25
2019-04-16T13:51:45.089Z,13.25
2019-04-16T13:56:56.018Z,13.42
2019-04-16T14:02:22.247Z,13.18
2019-04-16T14:07:26.731Z,21.91
2019-04-16T14:12:41.615Z,21.25
2019-04-16T14:17:51.835Z,19.31
2019-04-16T14:22:42.935Z,20.11
2019-04-16T14:27:47.129Z,16.51
2019-04-16T14:32:51.368Z,13.88
2019-04-16T14:37:55.565Z,13.97
2019-04-16T14:42:59.907Z,14.08
2019-04-16T14:48:08.633Z,13.38
2019-04-16T14:53:10.942Z,13.47
2019-04-16T14:58:43.500Z,13.35
2019-04-16T15:04:08.369Z,13.07
2019-04-16T15:09:29.848Z,12.89
2019-04-16T15:14:38.176Z,13.34
2019-04-16T15:19:48.357Z,13.26
2019-04-16T15:24:59.446Z,14.44
2019-04-16T15:30:16.622Z,15.67
2019-04-16T15:35:25.531Z,16.60
2019-04-16T15:40:39.168Z,17.69
2019-04-16T15:46:25.285Z,18.06
2019-04-16T15:51:26.153Z,18.78
2019-04-16T15:56:51.794Z,18.88
2019-04-16T16:02:27.136Z,19.03
2019-04-16T16:07:36.194Z,19.09
2019-04-16T16:12:40.419Z,19.50
2019-04-16T16:17:44.630Z,19.64
2019-04-16T16:22:48.853Z,19.67
2019-04-16T16:27:53.071Z,19.83
2019-04-16T16:32:57.303Z,20.01
2019-04-16T16:38:01.540Z,20.04
2019-04-16T16:43:07.932Z,20.07
2019-04-16T16:48:12.124Z,20.17
2019-04-16T16:53:38.301Z,20.48
2019-04-16T16:58:56.840Z,20.72
2019-04-16T17:04:13.570Z,21.24
2019-04-16T17:09:32.017Z,21.24
2019-04-16T17:14:37.878Z,21.73
2019-04-16T17:19:42.236Z,22.16
2019-04-16T17:24:46.435Z,22.58
2019-04-16T17:29:50.905Z,23.33
2019-04-16T17:34:55.519Z,24.72
2019-04-16T17:40:07.690Z,25.53
2019-04-16T17:45:49.283Z,25.60
2019-04-16T17:51:12.437Z,25.39
2019-04-16T17:56:31.881Z,26.46
2019-04-16T18:01:54.325Z,26.09
2019-04-16T18:07:17.650Z,26.17
2019-04-16T18:12:39.075Z,26.72
2019-04-16T18:18:00.867Z,26.66
2019-04-16T18:23:09.434Z,26.71
2019-04-16T18:28:18.782Z,27.32
2019-04-16T18:33:28.822Z,27.34
2019-04-16T18:38:52.015Z,27.08
2019-04-16T18:44:30.565Z,26.97
2019-04-16T18:49:35.626Z,27.05
2019-04-16T18:54:40.248Z,27.10
2019-04-16T18:59:44.912Z,27.34
2019-04-16T19:04:51.087Z,27.39
2019-04-16T19:09:56.115Z,27.40
2019-04-16T19:15:01.171Z,27.46
2019-04-16T19:20:06.376Z,27.68
2019-04-16T19:25:11.624Z,27.79
2019-04-16T19:30:17.476Z,27.79
2019-04-16T19:35:22.954Z,28.00
2019-04-16T19:40:28.525Z,27.85
2019-04-16T19:45:34.013Z,28.24
2019-04-16T19:50:39.953Z,28.37
2019-04-16T19:55:46.634Z,28.10
2019-04-16T20:00:53.971Z,28.54
2019-04-16T20:05:59.544Z,28.29
2019-04-16T20:11:04.822Z,28.70
2019-04-16T20:16:10.661Z,28.95
2019-04-16T20:21:15.717Z,29.12
2019-04-16T20:26:20.979Z,29.06
2019-04-16T20:31:25.707Z,28.89
2019-04-16T20:36:30.447Z,29.15
2019-04-16T20:41:34.991Z,29.37
2019-04-16T20:46:39.484Z,29.23
2019-04-16T20:51:44.834Z,29.57
2019-04-16T20:56:53.263Z,29.53
2019-04-16T21:01:56.056Z,29.78
2019-04-16T21:07:00.255Z,29.91
2019-04-16T21:12:04.497Z,29.96
2019-04-16T21:17:08.709Z,30.68
2019-04-16T21:22:14.038Z,30.17
2019-04-16T21:27:18.335Z,30.41
2019-04-16T21:32:41.503Z,30.49
2019-04-16T21:38:07.721Z,30.69
2019-04-16T21:43:12.083Z,30.94
2019-04-16T21:48:16.287Z,31.29
2019-04-16T21:53:20.509Z,31.16
2019-04-16T21:58:24.723Z,31.27
2019-04-16T22:03:30.072Z,31.33
2019-04-16T22:08:34.297Z,31.52
2019-04-16T22:13:38.579Z,31.67
2019-04-16T22:18:42.821Z,31.65
2019-04-16T22:23:50.137Z,31.80
2019-04-16T22:28:53.065Z,32.24
2019-04-16T22:33:57.305Z,32.18
2019-04-16T22:39:22.525Z,32.29
2019-04-16T22:44:44.402Z,32.49
2019-04-16T22:49:48.680Z,32.65
2019-04-16T22:54:54.592Z,32.74
2019-04-16T22:59:58.838Z,32.81
2019-04-16T23:05:03.126Z,32.83
2019-04-16T23:10:08.010Z,32.98
2019-04-16T23:15:13.656Z,33.06
2019-04-16T23:20:29.217Z,33.08
2019-04-16T23:25:26.977Z,33.09
2019-04-16T23:30:30.124Z,33.19
2019-04-16T23:35:34.359Z,33.15
2019-04-16T23:40:40.829Z,33.29
2019-04-16T23:46:06.924Z,33.41
2019-04-16T23:51:16.104Z,33.33
2019-04-16T23:56:42.153Z,33.28
